createdAt,value
2023-02-01T00:01:16.393Z,98257.94
2023-02-01T00:03:43.724Z,98257.00
2023-02-01T00:08:37.584Z,98256.22
2023-02-01T00:11:07.129Z,98261.22
2023-02-01T00:13:35.406Z,98278.34
2023-02-01T00:16:20.434Z,98274.03
2023-02-01T00:18:48.507Z,98284.31
2023-02-01T00:21:16.626Z,98270.53
2023-02-01T00:23:43.590Z,98298.97
2023-02-01T00:26:19.744Z,98303.44
2023-02-01T00:28:47.273Z,98296.69
2023-02-01T00:31:14.477Z,98289.06
2023-02-01T00:33:41.653Z,98280.56
2023-02-01T00:36:09.290Z,98296.91
2023-02-01T00:38:39.179Z,98302.94
2023-02-01T00:41:12.009Z,98291.78
2023-02-01T00:43:40.140Z,98289.22
2023-02-01T00:46:07.350Z,98295.16
2023-02-01T00:48:34.366Z,98294.34
2023-02-01T00:51:02.682Z,98283.19
2023-02-01T00:53:29.949Z,98275.47
2023-02-01T00:55:57.591Z,98284.03
2023-02-01T00:58:27.770Z,98275.47
2023-02-01T01:01:13.316Z,98295.22
2023-02-01T01:03:43.293Z,98281.47
2023-02-01T01:06:15.436Z,98290.00
2023-02-01T01:08:42.737Z,98293.41
2023-02-01T01:11:16.055Z,98283.13
2023-02-01T01:13:43.624Z,98297.63
2023-02-01T01:16:11.933Z,98281.38
2023-02-01T01:18:39.275Z,98276.22
2023-02-01T01:21:07.506Z,98267.59
2023-02-01T01:23:35.490Z,98274.41
2023-02-01T01:26:08.059Z,98276.94
2023-02-01T01:28:35.444Z,98283.72
2023-02-01T01:31:02.653Z,98282.94
2023-02-01T01:33:29.704Z,98272.66
2023-02-01T01:35:56.769Z,98276.03
2023-02-01T01:38:23.642Z,98277.75
2023-02-01T01:40:50.959Z,98301.75
2023-02-01T01:43:22.167Z,98282.84
2023-02-01T01:45:51.788Z,98287.13
2023-02-01T01:48:28.304Z,98287.13
2023-02-01T01:51:11.166Z,98302.56
2023-02-01T01:53:44.856Z,98303.41
2023-02-01T01:56:13.063Z,98293.09
2023-02-01T01:58:40.017Z,98302.53
2023-02-01T02:01:07.139Z,98299.97
2023-02-01T02:03:40.874Z,98296.56
2023-02-01T02:06:16.686Z,98272.53
2023-02-01T02:08:43.715Z,98269.09
2023-02-01T02:11:13.361Z,98267.47
2023-02-01T02:13:42.957Z,98271.75
2023-02-01T02:16:28.723Z,98275.97
2023-02-01T02:22:01.307Z,98279.38
2023-02-01T02:24:43.292Z,98281.09
2023-02-01T02:27:28.809Z,98287.00
2023-02-01T02:30:16.371Z,98293.03
2023-02-01T02:32:52.200Z,98299.09
2023-02-01T02:35:48.839Z,98303.53
2023-02-01T02:38:24.551Z,98308.00
2023-02-01T02:41:02.663Z,98320.97
2023-02-01T02:44:07.931Z,98315.94
2023-02-01T02:46:57.386Z,98323.75
2023-02-01T02:49:37.302Z,98301.56
2023-02-01T02:52:27.853Z,98310.09
2023-02-01T02:54:55.808Z,98311.78
2023-02-01T02:57:54.452Z,98322.06
2023-02-01T03:00:43.950Z,98298.00
2023-02-01T03:03:29.711Z,98307.38
2023-02-01T03:05:57.248Z,98270.53
2023-02-01T03:08:29.961Z,98297.13
2023-02-01T03:11:10.731Z,98307.44
2023-02-01T03:13:43.581Z,98304.00
2023-02-01T03:16:16.605Z,98315.13
2023-02-01T03:19:02.190Z,98321.97
2023-02-01T03:21:35.087Z,98318.53
2023-02-01T03:24:05.935Z,98318.53
2023-02-01T03:26:35.636Z,98308.28
2023-02-01T03:29:24.661Z,98305.75
2023-02-01T03:31:51.923Z,98299.72
2023-02-01T03:34:18.866Z,98310.84
2023-02-01T03:36:52.189Z,98309.97
2023-02-01T03:39:26.794Z,98316.78
2023-02-01T03:41:59.099Z,98311.66
2023-02-01T03:44:48.451Z,98321.09
2023-02-01T03:47:25.118Z,98322.84
2023-02-01T03:49:56.784Z,98329.72
2023-02-01T03:52:27.453Z,98328.00
2023-02-01T03:54:55.224Z,98311.75
2023-02-01T03:57:35.051Z,98322.88
2023-02-01T04:00:15.450Z,98316.88
2023-02-01T04:02:42.379Z,98303.16
2023-02-01T04:05:09.907Z,98322.84
2023-02-01T04:07:39.001Z,98305.66
2023-02-01T04:10:06.638Z,98313.31
2023-02-01T04:12:33.512Z,98299.53
2023-02-01T04:15:00.572Z,98307.19
2023-02-01T04:17:27.422Z,98304.56
2023-02-01T04:19:55.585Z,98304.47
2023-02-01T04:22:22.607Z,98285.63
2023-02-01T04:24:49.983Z,98301.00
2023-02-01T04:27:16.850Z,98283.81
2023-02-01T04:29:44.054Z,98289.78
2023-02-01T04:32:11.064Z,98287.97
2023-02-01T04:34:38.052Z,98294.88
2023-02-01T04:37:05.002Z,98298.34
2023-02-01T04:39:31.841Z,98289.81
2023-02-01T04:41:58.818Z,98291.53
2023-02-01T04:44:25.724Z,98303.56
2023-02-01T04:46:52.776Z,98298.47
2023-02-01T04:49:20.134Z,98277.00
2023-02-01T04:51:46.977Z,98280.47
2023-02-01T04:54:13.935Z,98296.78
2023-02-01T04:56:41.157Z,98293.38
2023-02-01T04:59:08.038Z,98303.66
2023-02-01T05:01:35.065Z,98307.91
2023-02-01T05:04:02.153Z,98295.91
2023-02-01T05:06:29.268Z,98299.38
2023-02-01T05:08:56.303Z,98295.97
2023-02-01T05:11:42.101Z,98291.72
2023-02-01T05:14:09.133Z,98304.59
2023-02-01T05:16:36.464Z,98309.72
2023-02-01T05:19:03.542Z,98302.88
2023-02-01T05:21:30.568Z,98296.88
2023-02-01T05:24:16.202Z,98303.78
2023-02-01T05:26:43.897Z,98296.09
2023-02-01T05:29:12.007Z,98289.28
2023-02-01T05:31:39.474Z,98297.00
2023-02-01T05:34:06.999Z,98309.03
2023-02-01T05:36:34.349Z,98298.75
2023-02-01T05:39:01.544Z,98292.75
2023-02-01T05:41:28.532Z,98292.66
2023-02-01T05:43:55.395Z,98292.63
2023-02-01T05:46:22.449Z,98280.59
2023-02-01T05:48:49.319Z,98275.38
2023-02-01T05:51:16.393Z,98274.50
2023-02-01T05:53:43.343Z,98272.69
2023-02-01T05:56:10.321Z,98257.13
2023-02-01T05:58:37.188Z,98253.63
2023-02-01T06:01:04.557Z,98279.31
2023-02-01T06:03:31.666Z,98283.59
2023-02-01T06:05:58.584Z,98284.44
2023-02-01T06:08:26.805Z,98285.31
2023-02-01T06:11:04.968Z,98281.00
2023-02-01T06:13:34.419Z,98272.44
2023-02-01T06:16:07.000Z,98264.72
2023-02-01T06:18:35.784Z,98288.78
2023-02-01T06:21:02.847Z,98279.41
2023-02-01T06:23:30.909Z,98282.81
2023-02-01T06:26:03.675Z,98291.41
2023-02-01T06:28:31.634Z,98291.41
2023-02-01T06:30:59.338Z,98275.97
2023-02-01T06:33:26.973Z,98281.91
2023-02-01T06:36:01.271Z,98280.97
2023-02-01T06:38:28.376Z,98274.06
2023-02-01T06:40:56.400Z,98277.50
2023-02-01T06:43:24.574Z,98286.91
2023-02-01T06:45:51.935Z,98291.19
2023-02-01T06:48:19.201Z,98294.63
2023-02-01T06:50:46.226Z,98298.06
2023-02-01T06:53:13.128Z,98298.91
2023-02-01T06:55:40.089Z,98304.94
2023-02-01T06:58:07.000Z,98300.72
2023-02-01T07:00:34.010Z,98316.16
2023-02-01T07:03:02.144Z,98308.44
2023-02-01T07:05:29.084Z,98320.44
2023-02-01T07:07:56.219Z,98321.34
2023-02-01T07:10:23.442Z,98316.16
2023-02-01T07:12:50.659Z,98317.84
2023-02-01T07:15:17.666Z,98311.84
2023-02-01T07:17:45.746Z,98310.13
2023-02-01T07:20:12.814Z,98281.78
2023-02-01T07:22:39.786Z,98305.69
2023-02-01T07:25:07.399Z,98316.81
2023-02-01T07:27:37.974Z,98309.03
2023-02-01T07:30:06.436Z,98294.41
2023-02-01T07:32:33.587Z,98314.81
2023-02-01T07:35:00.800Z,98310.56
2023-02-01T07:37:27.795Z,98312.28
2023-02-01T07:39:54.714Z,98318.22
2023-02-01T07:42:21.819Z,98324.19
2023-02-01T07:44:48.758Z,98320.72
2023-02-01T07:47:15.698Z,98313.78
2023-02-01T07:49:42.664Z,98325.81
2023-02-01T07:52:09.575Z,98318.06
2023-02-01T07:54:37.463Z,98326.50
2023-02-01T07:57:04.498Z,98309.31
2023-02-01T07:59:31.406Z,98317.03
2023-02-01T08:01:58.415Z,98322.16
2023-02-01T08:04:25.450Z,98318.72
2023-02-01T08:06:52.387Z,98314.44
2023-02-01T08:09:19.405Z,98329.00
2023-02-01T08:11:46.460Z,98307.38
2023-02-01T08:14:13.488Z,98303.97
2023-02-01T08:16:40.563Z,98328.09
2023-02-01T08:19:07.656Z,98322.16
2023-02-01T08:21:38.136Z,98338.50
2023-02-01T08:24:06.965Z,98322.06
2023-02-01T08:26:33.947Z,98313.41
2023-02-01T08:29:04.114Z,98317.63
2023-02-01T08:34:01.288Z,98305.56
2023-02-01T08:36:30.303Z,98315.97
2023-02-01T08:38:57.692Z,98316.84
2023-02-01T08:41:27.303Z,98304.81
2023-02-01T08:43:55.466Z,98320.25
2023-02-01T08:46:23.484Z,98325.31
2023-02-01T08:48:51.098Z,98318.41
2023-02-01T08:51:19.647Z,98320.91
2023-02-01T08:53:47.074Z,98313.03
2023-02-01T08:56:16.160Z,98321.63
2023-02-01T08:58:43.523Z,98307.81
2023-02-01T09:01:14.403Z,98316.41
2023-02-01T09:03:41.530Z,98316.41
2023-02-01T09:06:11.185Z,98304.25
2023-02-01T09:08:38.984Z,98303.53
2023-02-01T09:11:08.897Z,98316.50
2023-02-01T09:13:36.694Z,98327.69
2023-02-01T09:16:04.672Z,98288.16
2023-02-01T09:18:31.833Z,98316.66
2023-02-01T09:20:58.863Z,98311.56
2023-02-01T09:23:26.095Z,98297.72
2023-02-01T09:25:53.281Z,98306.31
2023-02-01T09:28:21.008Z,98300.25
2023-02-01T09:30:48.059Z,98294.16
2023-02-01T09:33:15.372Z,98316.53
2023-02-01T09:35:42.446Z,98320.69
2023-02-01T09:38:09.529Z,98312.97
2023-02-01T09:40:36.649Z,98318.88
2023-02-01T09:43:27.434Z,98333.47
2023-02-01T09:46:12.850Z,98315.50
2023-02-01T09:48:41.834Z,98318.16
2023-02-01T09:51:15.866Z,98313.84
2023-02-01T09:53:45.007Z,98306.78
2023-02-01T09:56:54.534Z,98305.75
2023-02-01T09:59:52.244Z,98334.91
2023-02-01T10:02:23.214Z,98311.50
2023-02-01T10:04:50.682Z,98315.78
2023-02-01T10:07:49.498Z,98317.31
2023-02-01T10:10:38.863Z,98317.47
2023-02-01T10:13:24.708Z,98281.28
2023-02-01T10:16:29.281Z,98315.16
2023-02-01T10:19:03.127Z,98321.38
2023-02-01T10:21:48.575Z,98334.38
2023-02-01T10:24:21.065Z,98315.41
2023-02-01T10:27:16.393Z,98315.47
2023-02-01T10:29:47.007Z,98298.38
2023-02-01T10:32:19.749Z,98312.09
2023-02-01T10:34:51.534Z,98313.69
2023-02-01T10:37:24.554Z,98324.63
2023-02-01T10:39:55.315Z,98318.59
2023-02-01T10:42:26.586Z,98325.50
2023-02-01T10:44:55.541Z,98321.78
2023-02-01T10:47:22.515Z,98319.25
2023-02-01T10:50:18.477Z,98322.81
2023-02-01T10:52:54.395Z,98322.75
2023-02-01T10:55:40.765Z,98332.91
2023-02-01T10:58:22.739Z,98332.03
2023-02-01T11:00:59.092Z,98335.31
2023-02-01T11:03:41.548Z,98330.97
2023-02-01T11:06:24.597Z,98338.75
2023-02-01T11:09:00.158Z,98343.97
2023-02-01T11:11:27.672Z,98327.75
2023-02-01T11:14:00.638Z,98309.16
2023-02-01T11:16:40.290Z,98347.38
2023-02-01T11:19:08.245Z,98310.00
2023-02-01T11:21:35.803Z,98352.53
2023-02-01T11:24:05.436Z,98358.75
2023-02-01T11:26:34.056Z,98348.50
2023-02-01T11:29:06.633Z,98357.16
2023-02-01T11:31:35.122Z,98348.66
2023-02-01T11:34:08.157Z,98358.16
2023-02-01T11:36:37.984Z,98359.84
2023-02-01T11:39:31.808Z,98364.19
2023-02-01T11:42:19.791Z,98374.59
2023-02-01T11:44:48.102Z,98373.00
2023-02-01T11:47:28.090Z,98375.59
2023-02-01T11:50:00.492Z,98365.34
2023-02-01T11:52:42.476Z,98373.84
2023-02-01T11:55:15.903Z,98376.25
2023-02-01T11:58:20.500Z,98371.81
2023-02-01T12:01:11.929Z,98388.06
2023-02-01T12:04:16.301Z,98394.06
2023-02-01T12:06:52.167Z,98381.22
2023-02-01T12:09:37.834Z,98387.25
2023-02-01T12:12:14.288Z,98375.31
2023-02-01T12:14:50.358Z,98399.38
2023-02-01T12:17:40.293Z,98390.84
2023-02-01T12:20:32.354Z,98396.03
2023-02-01T12:23:03.127Z,98408.09
2023-02-01T12:25:59.532Z,98400.47
2023-02-01T12:28:46.875Z,98407.41
2023-02-01T12:31:25.267Z,98432.28
2023-02-01T12:34:33.886Z,98416.88
2023-02-01T12:37:10.995Z,98422.94
2023-02-01T12:39:53.311Z,98422.97
2023-02-01T12:42:30.657Z,98422.19
2023-02-01T12:45:21.366Z,98417.09
2023-02-01T12:48:18.220Z,98421.34
2023-02-01T12:50:51.000Z,98421.34
2023-02-01T12:53:25.970Z,98422.22
2023-02-01T12:56:03.716Z,98411.09
2023-02-01T12:58:37.454Z,98406.78
2023-02-01T13:01:11.096Z,98420.50
2023-02-01T13:03:58.940Z,98417.06
2023-02-01T13:06:31.595Z,98410.19
2023-02-01T13:09:17.045Z,98406.72
2023-02-01T13:11:46.219Z,98390.44
2023-02-01T13:14:25.251Z,98388.69
2023-02-01T13:17:04.319Z,98394.72
2023-02-01T13:20:08.787Z,98391.28
2023-02-01T13:22:45.128Z,98394.69
2023-02-01T13:25:15.367Z,98392.94
2023-02-01T13:27:42.377Z,98386.94
2023-02-01T13:30:25.711Z,98390.31
2023-02-01T13:33:54.593Z,98391.06
2023-02-01T13:36:31.749Z,98388.34
2023-02-01T13:39:35.872Z,98395.13
2023-02-01T13:42:06.807Z,98380.38
2023-02-01T13:44:42.544Z,98393.19
2023-02-01T13:47:29.581Z,98404.28
2023-02-01T13:49:59.732Z,98396.50
2023-02-01T13:52:30.419Z,98394.78
2023-02-01T13:55:23.750Z,98402.53
2023-02-01T13:57:53.177Z,98391.34
2023-02-01T14:00:40.210Z,98400.75
2023-02-01T14:03:07.164Z,98400.78
2023-02-01T14:05:54.042Z,98406.75
2023-02-01T14:08:53.853Z,98393.06
2023-02-01T14:11:54.599Z,98399.06
2023-02-01T14:14:24.668Z,98399.81
2023-02-01T14:16:54.470Z,98401.44
2023-02-01T14:19:22.834Z,98391.09
2023-02-01T14:22:02.611Z,98390.19
2023-02-01T14:24:34.921Z,98394.56
2023-02-01T14:27:15.217Z,98414.34
2023-02-01T14:29:45.802Z,98399.78
2023-02-01T14:32:20.259Z,98402.41
2023-02-01T14:34:47.703Z,98405.06
2023-02-01T14:37:23.859Z,98405.97
2023-02-01T14:39:53.314Z,98411.13
2023-02-01T14:42:27.215Z,98406.03
2023-02-01T14:44:58.625Z,98406.03
2023-02-01T14:47:30.641Z,98412.97
2023-02-01T14:50:22.642Z,98430.13
2023-02-01T14:53:11.219Z,98434.44
2023-02-01T14:56:13.971Z,98433.59
2023-02-01T14:58:52.355Z,98425.13
2023-02-01T15:01:26.479Z,98424.38
2023-02-01T15:03:57.943Z,98421.81
2023-02-01T15:06:27.698Z,98448.44
2023-02-01T15:09:19.997Z,98471.59
2023-02-01T15:12:13.476Z,98454.50
2023-02-01T15:14:43.629Z,98443.38
2023-02-01T15:17:36.751Z,98443.44
2023-02-01T15:20:04.713Z,98438.31
2023-02-01T15:22:32.687Z,98451.19
2023-02-01T15:25:01.524Z,98456.38
2023-02-01T15:27:29.832Z,98454.69
2023-02-01T15:30:09.904Z,98453.00
2023-02-01T15:32:39.756Z,98452.16
2023-02-01T15:35:27.294Z,98456.47
2023-02-01T15:37:54.479Z,98469.31
2023-02-01T15:40:25.241Z,98465.06
2023-02-01T15:43:00.587Z,98477.88
2023-02-01T15:45:31.084Z,98477.00
2023-02-01T15:47:59.440Z,98483.00
2023-02-01T15:50:34.690Z,98477.84
2023-02-01T15:53:01.837Z,98479.50
2023-02-01T15:55:37.581Z,98479.50
2023-02-01T15:58:09.529Z,98474.38
2023-02-01T16:00:48.437Z,98476.09
2023-02-01T16:03:36.610Z,98472.66
2023-02-01T16:06:26.881Z,98473.53
2023-02-01T16:08:58.849Z,98477.81
2023-02-01T16:11:29.639Z,98463.22
2023-02-01T16:13:56.798Z,98457.22
2023-02-01T16:16:25.044Z,98459.84
2023-02-01T16:18:52.004Z,98472.66
2023-02-01T16:21:19.061Z,98473.50
2023-02-01T16:23:51.217Z,98479.50
2023-02-01T16:26:18.509Z,98465.72
2023-02-01T16:28:45.877Z,98470.84
2023-02-01T16:31:20.446Z,98464.03
2023-02-01T16:33:51.585Z,98459.69
2023-02-01T16:36:19.305Z,98459.66
2023-02-01T16:38:49.151Z,98451.91
2023-02-01T16:41:18.893Z,98461.31
2023-02-01T16:43:46.207Z,98460.44
2023-02-01T16:46:17.972Z,98457.91
2023-02-01T16:48:47.404Z,98451.81
2023-02-01T16:51:16.807Z,98447.53
2023-02-01T16:53:53.943Z,98450.94
2023-02-01T16:56:25.143Z,98444.97
2023-02-01T16:58:52.599Z,98455.25
2023-02-01T17:01:20.127Z,98450.97
2023-02-01T17:03:47.794Z,98449.25
2023-02-01T17:06:18.819Z,98452.66
2023-02-01T17:08:48.302Z,98449.22
2023-02-01T17:11:15.398Z,98447.50
2023-02-01T17:13:42.945Z,98444.94
2023-02-01T17:16:17.156Z,98444.09
2023-02-01T17:18:44.562Z,98437.19
2023-02-01T17:21:11.710Z,98437.19
2023-02-01T17:23:38.763Z,98442.31
2023-02-01T17:26:05.866Z,98449.19
2023-02-01T17:28:33.048Z,98454.34
2023-02-01T17:31:00.213Z,98451.75
2023-02-01T17:33:36.674Z,98456.88
2023-02-01T17:36:06.188Z,98446.59
2023-02-01T17:38:33.447Z,98441.50
2023-02-01T17:41:00.570Z,98442.34
2023-02-01T17:43:27.678Z,98442.34
2023-02-01T17:46:15.373Z,98441.47
2023-02-01T17:48:43.119Z,98434.56
2023-02-01T17:51:21.124Z,98436.28
2023-02-01T17:53:48.429Z,98448.28
2023-02-01T17:56:21.087Z,98437.13
2023-02-01T17:58:49.114Z,98447.44
2023-02-01T18:01:20.306Z,98442.28
2023-02-01T18:03:48.477Z,98444.00
2023-02-01T18:06:17.466Z,98445.69
2023-02-01T18:08:45.010Z,98449.97
2023-02-01T18:11:23.462Z,98456.84
2023-02-01T18:13:53.177Z,98455.97
2023-02-01T18:16:28.494Z,98454.25
2023-02-01T18:19:02.010Z,98456.81
2023-02-01T18:21:33.945Z,98457.66
2023-02-01T18:24:02.232Z,98453.38
2023-02-01T18:26:29.792Z,98455.06
2023-02-01T18:28:56.869Z,98459.38
2023-02-01T18:31:30.191Z,98450.84
2023-02-01T18:33:58.961Z,98450.81
2023-02-01T18:36:26.886Z,98454.25
2023-02-01T18:38:56.523Z,98443.94
2023-02-01T18:41:24.194Z,98438.81
2023-02-01T18:43:52.679Z,98439.69
2023-02-01T18:46:21.752Z,98429.44
2023-02-01T18:48:49.241Z,98429.44
2023-02-01T18:51:20.410Z,98430.31
2023-02-01T18:53:48.300Z,98425.19
2023-02-01T18:56:17.374Z,98425.19
2023-02-01T18:58:44.461Z,98428.63
2023-02-01T19:01:19.999Z,98434.63
2023-02-01T19:03:57.566Z,98419.19
2023-02-01T19:06:28.572Z,98426.03
2023-02-01T19:08:56.350Z,98425.19
2023-02-01T19:11:23.395Z,98426.06
2023-02-01T19:13:50.995Z,98423.47
2023-02-01T19:16:18.015Z,98428.63
2023-02-01T19:18:45.214Z,98426.94
2023-02-01T19:21:13.459Z,98420.06
2023-02-01T19:23:41.628Z,98429.47
2023-02-01T19:26:16.305Z,98425.19
2023-02-01T19:28:48.124Z,98425.19
2023-02-01T19:31:15.659Z,98437.22
2023-02-01T19:33:42.718Z,98425.25
2023-02-01T19:36:11.064Z,98425.31
2023-02-01T19:38:38.668Z,98428.78
2023-02-01T19:41:06.214Z,98425.34
2023-02-01T19:43:33.257Z,98420.25
2023-02-01T19:46:03.006Z,98418.56
2023-02-01T19:48:31.593Z,98422.00
2023-02-01T19:50:59.216Z,98424.59
2023-02-01T19:53:28.179Z,98438.31
2023-02-01T19:55:56.941Z,98430.59
2023-02-01T19:58:25.140Z,98433.13
2023-02-01T20:00:55.963Z,98432.28
2023-02-01T20:03:24.010Z,98421.09
2023-02-01T20:05:55.389Z,98433.97
2023-02-01T20:08:22.784Z,98428.00
2023-02-01T20:10:49.696Z,98428.81
2023-02-01T20:13:16.997Z,98428.00
2023-02-01T20:15:44.978Z,98427.13
2023-02-01T20:18:12.313Z,98428.91
2023-02-01T20:20:41.652Z,98425.47
2023-02-01T20:23:09.297Z,98437.47
2023-02-01T20:25:38.171Z,98440.00
2023-02-01T20:28:05.368Z,98434.03
2023-02-01T20:30:32.549Z,98431.47
2023-02-01T20:32:59.878Z,98422.06
2023-02-01T20:35:27.042Z,98422.94
2023-02-01T20:37:54.521Z,98422.94
2023-02-01T20:40:21.643Z,98420.34
2023-02-01T20:42:48.836Z,98422.06
2023-02-01T20:45:15.930Z,98425.53
2023-02-01T20:47:43.479Z,98433.25
2023-02-01T20:50:11.848Z,98437.50
2023-02-01T20:52:38.937Z,98438.38
2023-02-01T20:55:07.050Z,98443.53
2023-02-01T20:57:36.101Z,98438.38
2023-02-01T21:00:09.065Z,98447.81
2023-02-01T21:02:37.579Z,98446.94
2023-02-01T21:05:07.009Z,98444.38
2023-02-01T21:07:34.819Z,98447.78
2023-02-01T21:10:05.211Z,98452.94
2023-02-01T21:12:33.290Z,98449.50
2023-02-01T21:15:02.797Z,98449.50
2023-02-01T21:17:33.077Z,98447.75
2023-02-01T21:20:01.351Z,98438.31
2023-02-01T21:22:29.364Z,98446.91
2023-02-01T21:24:56.909Z,98451.16
2023-02-01T21:27:24.951Z,98451.16
2023-02-01T21:29:52.130Z,98451.16
2023-02-01T21:32:19.104Z,98449.41
2023-02-01T21:34:47.847Z,98446.00
2023-02-01T21:37:14.851Z,98446.00
2023-02-01T21:39:41.785Z,98444.25
2023-02-01T21:42:17.676Z,98445.09
2023-02-01T21:44:48.476Z,98443.38
2023-02-01T21:47:18.817Z,98451.94
2023-02-01T21:49:48.976Z,98451.06
2023-02-01T21:52:17.738Z,98452.81
2023-02-01T21:54:45.048Z,98450.19
2023-02-01T21:57:12.852Z,98447.63
2023-02-01T21:59:41.054Z,98454.50
2023-02-01T22:02:13.408Z,98445.88
2023-02-01T22:04:40.843Z,98450.19
2023-02-01T22:07:08.360Z,98451.91
2023-02-01T22:09:36.206Z,98451.03
2023-02-01T22:12:04.024Z,98456.19
2023-02-01T22:14:30.966Z,98452.75
2023-02-01T22:16:57.921Z,98454.47
2023-02-01T22:19:24.942Z,98455.34
2023-02-01T22:21:51.827Z,98451.09
2023-02-01T22:24:22.420Z,98449.41
2023-02-01T22:26:49.915Z,98454.56
2023-02-01T22:29:19.323Z,98453.72
2023-02-01T22:31:46.534Z,98459.72
2023-02-01T22:34:13.724Z,98465.75
2023-02-01T22:36:40.673Z,98474.34
2023-02-01T22:39:07.864Z,98464.09
2023-02-01T22:41:34.764Z,98469.28
2023-02-01T22:44:01.819Z,98471.88
2023-02-01T22:46:29.885Z,98477.03
2023-02-01T22:48:57.976Z,98472.75
2023-02-01T22:51:27.052Z,98460.78
2023-02-01T22:53:57.259Z,98459.94
2023-02-01T22:56:26.430Z,98463.38
2023-02-01T22:59:01.858Z,98471.06
2023-02-01T23:01:29.202Z,98469.38
2023-02-01T23:04:00.544Z,98468.50
2023-02-01T23:06:28.343Z,98473.63
2023-02-01T23:09:00.602Z,98470.19
2023-02-01T23:11:28.465Z,98469.34
2023-02-01T23:13:55.746Z,98465.91
2023-02-01T23:16:23.261Z,98459.91
2023-02-01T23:18:50.363Z,98459.94
2023-02-01T23:21:19.292Z,98451.41
2023-02-01T23:23:48.094Z,98452.22
2023-02-01T23:26:15.811Z,98446.25
2023-02-01T23:28:43.148Z,98444.53
2023-02-01T23:31:11.309Z,98443.69
2023-02-01T23:33:38.962Z,98444.53
2023-02-01T23:36:08.104Z,98435.97
2023-02-01T23:38:35.336Z,98432.53
2023-02-01T23:41:06.854Z,98433.38
2023-02-01T23:43:52.597Z,98439.41
2023-02-01T23:46:19.780Z,98431.66
2023-02-01T23:48:48.296Z,98428.25
2023-02-01T23:51:16.017Z,98427.41
2023-02-01T23:53:44.821Z,98432.53
2023-02-01T23:56:31.314Z,98428.25
2023-02-01T23:58:58.280Z,98424.81
